PWSweather.com
Personal Weather Stations
Station Observations
WODONGA
Wodonga, WodongaAU 3690

WodongaWodongaAU 3690

Lat: -36.121, Lon: 146.87

Elevation: 541

Station Type: Weather Station

http://www.wodongaweather.net

High Low Average
Temperature 57.4°F14.1°F 43.2°F6.2°F 50.0°F10.0°F
Dew Point 50.6°F10.3°F 40.9°F4.9°F 45.9°F7.7°F
Winds 5.9 mph ESE9.5 mph ESE Calm Calm 2.0 mph 3.2 mph
Wind Gusts 8.3 mph13.4 mph -- 3.2 mph5.1 mph
Humidity 94% 76% 86%
Pressure 30.29 in1025.70 in 30.17 in1021.70 in -
Precipitation 0.12 in3.00 in - -
Hour Temp Dew Point Humidity Winds Wind Gusts Pressure Precip Precip Rate Daily Precip Total
12:00 AM 47.5°F8.6°C 43.5°F6.4°C 86% 0.6 mph S1.0 kmh S 1.6 mph2.6 kmh 30.29 in1025.7 mb 0.00 in0.0 mm 0.00 in0.0 mm 0.00 in0.0 mm
12:05 AM 47.5°F8.6°C 43.8°F6.6°C 87% 0.1 mph SSW0.2 kmh SSW 1.6 mph2.6 kmh 30.29 in1025.7 mb 0.00 in0.0 mm 0.00 in0.0 mm 0.00 in0.0 mm
12:10 AM 47.5°F8.6°C 43.8°F6.6°C 87% Calm Calm 0.7 mph1.1 kmh 30.29 in1025.7 mb 0.00 in0.0 mm 0.00 in0.0 mm 0.00 in0.0 mm
12:15 AM 47.5°F8.6°C 43.8°F6.6°C 87% Calm Calm -- 30.29 in1025.7 mb 0.00 in0.0 mm 0.00 in0.0 mm 0.00 in0.0 mm
12:20 AM 47.3°F8.5°C 43.6°F6.4°C 87% 0.4 mph S0.6 kmh S 1.6 mph2.6 kmh 30.29 in1025.7 mb 0.00 in0.0 mm 0.00 in0.0 mm 0.00 in0.0 mm
12:25 AM 47.5°F8.6°C 43.8°F6.6°C 87% 1.1 mph S1.8 kmh S 1.6 mph2.6 kmh 30.29 in1025.7 mb 0.00 in0.0 mm 0.00 in0.0 mm 0.00 in0.0 mm
12:30 AM 47.5°F8.6°C 43.8°F6.6°C 87% 1.4 mph S2.3 kmh S 2.2 mph3.5 kmh 30.29 in1025.7 mb 0.00 in0.0 mm 0.00 in0.0 mm 0.00 in0.0 mm
12:35 AM 47.5°F8.6°C 43.8°F6.6°C 87% 1.5 mph S2.4 kmh S 2.2 mph3.5 kmh 30.29 in1025.7 mb 0.00 in0.0 mm 0.00 in0.0 mm 0.00 in0.0 mm
12:40 AM 47.5°F8.6°C 43.8°F6.6°C 87% 1.7 mph S2.7 kmh S 2.2 mph3.5 kmh 30.28 in1025.4 mb 0.00 in0.0 mm 0.00 in0.0 mm 0.00 in0.0 mm
12:45 AM 47.5°F8.6°C 43.8°F6.6°C 87% 1.6 mph S2.6 kmh S 1.6 mph2.6 kmh 30.29 in1025.7 mb 0.00 in0.0 mm 0.00 in0.0 mm 0.00 in0.0 mm
12:50 AM 47.3°F8.5°C 43.3°F6.3°C 86% 1.6 mph S2.6 kmh S 1.6 mph2.6 kmh 30.28 in1025.4 mb 0.00 in0.0 mm 0.00 in0.0 mm 0.00 in0.0 mm
12:55 AM 47.3°F8.5°C 43.6°F6.4°C 87% 1.6 mph S2.6 kmh S 1.6 mph2.6 kmh 30.28 in1025.4 mb 0.00 in0.0 mm 0.00 in0.0 mm 0.00 in0.0 mm
01:00 AM 47.3°F8.5°C 43.6°F6.4°C 87% 1.6 mph S2.6 kmh S 1.6 mph2.6 kmh 30.27 in1025.1 mb 0.00 in0.0 mm 0.00 in0.0 mm 0.00 in0.0 mm
01:05 AM 47.1°F8.4°C 43.5°F6.4°C 87% 1.6 mph SSE2.6 kmh SSE 1.6 mph2.6 kmh 30.27 in1025.1 mb 0.00 in0.0 mm 0.00 in0.0 mm 0.00 in0.0 mm
01:10 AM 47.1°F8.4°C 43.5°F6.4°C 87% 1.6 mph SE2.6 kmh SE 2.2 mph3.5 kmh 30.27 in1025.1 mb 0.00 in0.0 mm 0.00 in0.0 mm 0.00 in0.0 mm
01:15 AM 46.9°F8.3°C 43.3°F6.3°C 87% 1.6 mph SE2.6 kmh SE 2.2 mph3.5 kmh 30.27 in1025.1 mb 0.00 in0.0 mm 0.00 in0.0 mm 0.00 in0.0 mm
01:20 AM 46.9°F8.3°C 43.6°F6.4°C 88% 1.1 mph SE1.8 kmh SE 1.6 mph2.6 kmh 30.27 in1025.1 mb 0.00 in0.0 mm 0.00 in0.0 mm 0.00 in0.0 mm
01:25 AM 46.9°F8.3°C 43.6°F6.4°C 88% 0.3 mph S0.5 kmh S 1.6 mph2.6 kmh 30.27 in1025.1 mb 0.00 in0.0 mm 0.00 in0.0 mm 0.00 in0.0 mm
01:30 AM 46.9°F8.3°C 43.6°F6.4°C 88% 0.1 mph S0.2 kmh S 1.6 mph2.6 kmh 30.27 in1025.1 mb 0.00 in0.0 mm 0.00 in0.0 mm 0.00 in0.0 mm
01:35 AM 46.9°F8.3°C 43.6°F6.4°C 88% 0.2 mph S0.3 kmh S 1.6 mph2.6 kmh 30.27 in1025.1 mb 0.00 in0.0 mm 0.00 in0.0 mm 0.00 in0.0 mm
01:40 AM 47.1°F8.4°C 43.8°F6.6°C 88% 0.1 mph SW0.2 kmh SW 1.6 mph2.6 kmh 30.27 in1025.1 mb 0.00 in0.0 mm 0.00 in0.0 mm 0.00 in0.0 mm
01:45 AM 46.9°F8.3°C 43.6°F6.4°C 88% Calm Calm -- 30.27 in1025.1 mb 0.00 in0.0 mm 0.00 in0.0 mm 0.00 in0.0 mm
01:50 AM 46.9°F8.3°C 43.6°F6.4°C 88% Calm Calm 0.7 mph1.1 kmh 30.26 in1024.7 mb 0.00 in0.0 mm 0.00 in0.0 mm 0.00 in0.0 mm
01:55 AM 46.8°F8.2°C 43.4°F6.3°C 88% 0.7 mph N1.1 kmh N 2.2 mph3.5 kmh 30.26 in1024.7 mb 0.00 in0.0 mm 0.00 in0.0 mm 0.00 in0.0 mm
02:00 AM 46.8°F8.2°C 43.4°F6.3°C 88% 0.8 mph N1.3 kmh N 2.2 mph3.5 kmh 30.26 in1024.7 mb 0.00 in0.0 mm 0.00 in0.0 mm 0.00 in0.0 mm
02:05 AM 46.8°F8.2°C 43.4°F6.3°C 88% 0.1 mph NW0.2 kmh NW 0.7 mph1.1 kmh 30.26 in1024.7 mb 0.00 in0.0 mm 0.00 in0.0 mm 0.00 in0.0 mm
02:10 AM 46.8°F8.2°C 43.4°F6.3°C 88% Calm Calm -- 30.26 in1024.7 mb 0.00 in0.0 mm 0.00 in0.0 mm 0.00 in0.0 mm
02:15 AM 46.8°F8.2°C 43.4°F6.3°C 88% Calm Calm -- 30.26 in1024.7 mb 0.00 in0.0 mm 0.00 in0.0 mm 0.00 in0.0 mm
02:20 AM 46.8°F8.2°C 43.4°F6.3°C 88% Calm Calm -- 30.26 in1024.7 mb 0.00 in0.0 mm 0.00 in0.0 mm 0.00 in0.0 mm
02:25 AM 46.6°F8.1°C 43.2°F6.2°C 88% Calm Calm -- 30.25 in1024.4 mb 0.00 in0.0 mm 0.00 in0.0 mm 0.00 in0.0 mm
02:30 AM 46.4°F8.0°C 43.0°F6.1°C 88% Calm Calm -- 30.25 in1024.4 mb 0.00 in0.0 mm 0.00 in0.0 mm 0.00 in0.0 mm
02:35 AM 46.2°F7.9°C 42.9°F6.1°C 88% Calm Calm -- 30.25 in1024.4 mb 0.00 in0.0 mm 0.00 in0.0 mm 0.00 in0.0 mm
02:40 AM 45.9°F7.7°C 42.8°F6.0°C 89% 0.1 mph S0.2 kmh S 0.7 mph1.1 kmh 30.25 in1024.4 mb 0.00 in0.0 mm 0.00 in0.0 mm 0.00 in0.0 mm
02:45 AM 45.9°F7.7°C 42.8°F6.0°C 89% 0.4 mph S0.6 kmh S 0.7 mph1.1 kmh 30.25 in1024.4 mb 0.00 in0.0 mm 0.00 in0.0 mm 0.00 in0.0 mm
02:50 AM 45.9°F7.7°C 42.8°F6.0°C 89% 0.3 mph SSW0.5 kmh SSW 0.7 mph1.1 kmh 30.25 in1024.4 mb 0.00 in0.0 mm 0.00 in0.0 mm 0.00 in0.0 mm
02:55 AM 45.9°F7.7°C 42.8°F6.0°C 89% Calm Calm 0.7 mph1.1 kmh 30.25 in1024.4 mb 0.00 in0.0 mm 0.00 in0.0 mm 0.00 in0.0 mm
03:00 AM 45.9°F7.7°C 42.8°F6.0°C 89% Calm Calm -- 30.25 in1024.4 mb 0.00 in0.0 mm 0.00 in0.0 mm 0.00 in0.0 mm
03:05 AM 45.7°F7.6°C 42.9°F6.1°C 90% Calm Calm -- 30.25 in1024.4 mb 0.00 in0.0 mm 0.00 in0.0 mm 0.00 in0.0 mm
03:10 AM 45.5°F7.5°C 42.5°F5.8°C 89% 0.2 mph SW0.3 kmh SW 1.6 mph2.6 kmh 30.25 in1024.4 mb 0.00 in0.0 mm 0.00 in0.0 mm 0.00 in0.0 mm
03:15 AM 45.1°F7.3°C 42.4°F5.8°C 90% 0.8 mph WSW1.3 kmh WSW 1.6 mph2.6 kmh 30.25 in1024.4 mb 0.00 in0.0 mm 0.00 in0.0 mm 0.00 in0.0 mm
03:20 AM 45.3°F7.4°C 42.6°F5.9°C 90% 0.6 mph W1.0 kmh W 1.6 mph2.6 kmh 30.25 in1024.4 mb 0.00 in0.0 mm 0.00 in0.0 mm 0.00 in0.0 mm
03:25 AM 45.3°F7.4°C 42.6°F5.9°C 90% 0.1 mph W0.2 kmh W 0.7 mph1.1 kmh 30.25 in1024.4 mb 0.00 in0.0 mm 0.00 in0.0 mm 0.00 in0.0 mm
03:30 AM 45.1°F7.3°C 42.4°F5.8°C 90% Calm Calm -- 30.25 in1024.4 mb 0.00 in0.0 mm 0.00 in0.0 mm 0.00 in0.0 mm
03:35 AM 45.0°F7.2°C 42.2°F5.7°C 90% Calm Calm -- 30.25 in1024.4 mb 0.00 in0.0 mm 0.00 in0.0 mm 0.00 in0.0 mm
03:40 AM 45.1°F7.3°C 42.4°F5.8°C 90% Calm Calm -- 30.25 in1024.4 mb 0.00 in0.0 mm 0.00 in0.0 mm 0.00 in0.0 mm
03:45 AM 45.1°F7.3°C 42.4°F5.8°C 90% 0.3 mph S0.5 kmh S 1.6 mph2.6 kmh 30.25 in1024.4 mb 0.00 in0.0 mm 0.00 in0.0 mm 0.00 in0.0 mm
03:50 AM 45.3°F7.4°C 42.6°F5.9°C 90% 1.2 mph SE1.9 kmh SE 2.2 mph3.5 kmh 30.25 in1024.4 mb 0.00 in0.0 mm 0.00 in0.0 mm 0.00 in0.0 mm
03:55 AM 45.1°F7.3°C 42.4°F5.8°C 90% 1.5 mph SE2.4 kmh SE 2.2 mph3.5 kmh 30.25 in1024.4 mb 0.00 in0.0 mm 0.00 in0.0 mm 0.00 in0.0 mm
04:00 AM 45.1°F7.3°C 42.4°F5.8°C 90% 1.0 mph SSE1.6 kmh SSE 2.2 mph3.5 kmh 30.25 in1024.4 mb 0.00 in0.0 mm 0.00 in0.0 mm 0.00 in0.0 mm
04:05 AM 45.1°F7.3°C 42.4°F5.8°C 90% 0.4 mph S0.6 kmh S 1.6 mph2.6 kmh 30.25 in1024.4 mb 0.00 in0.0 mm 0.00 in0.0 mm 0.00 in0.0 mm
04:10 AM 45.0°F7.2°C 42.2°F5.7°C 90% Calm Calm -- 30.25 in1024.4 mb 0.00 in0.0 mm 0.00 in0.0 mm 0.00 in0.0 mm
04:15 AM 44.8°F7.1°C 42.0°F5.6°C 90% Calm Calm -- 30.25 in1024.4 mb 0.00 in0.0 mm 0.00 in0.0 mm 0.00 in0.0 mm
04:20 AM 44.6°F7.0°C 41.9°F5.5°C 90% 0.2 mph S0.3 kmh S 0.7 mph1.1 kmh 30.24 in1024.0 mb 0.00 in0.0 mm 0.00 in0.0 mm 0.00 in0.0 mm
04:25 AM 44.6°F7.0°C 41.9°F5.5°C 90% 0.6 mph S1.0 kmh S 1.6 mph2.6 kmh 30.24 in1024.0 mb 0.00 in0.0 mm 0.00 in0.0 mm 0.00 in0.0 mm
04:30 AM 44.4°F6.9°C 41.7°F5.4°C 90% 1.0 mph SSE1.6 kmh SSE 2.2 mph3.5 kmh 30.24 in1024.0 mb 0.00 in0.0 mm 0.00 in0.0 mm 0.00 in0.0 mm
04:35 AM 44.1°F6.7°C 41.3°F5.2°C 90% 1.2 mph S1.9 kmh S 2.2 mph3.5 kmh 30.24 in1024.0 mb 0.00 in0.0 mm 0.00 in0.0 mm 0.00 in0.0 mm
04:40 AM 44.1°F6.7°C 41.6°F5.3°C 91% 0.8 mph SSW1.3 kmh SSW 2.2 mph3.5 kmh 30.25 in1024.4 mb 0.00 in0.0 mm 0.00 in0.0 mm 0.00 in0.0 mm
04:45 AM 44.2°F6.8°C 41.8°F5.4°C 91% 0.3 mph SW0.5 kmh SW 0.7 mph1.1 kmh 30.24 in1024.0 mb 0.00 in0.0 mm 0.00 in0.0 mm 0.00 in0.0 mm
04:50 AM 44.2°F6.8°C 41.8°F5.4°C 91% 0.6 mph SSW1.0 kmh SSW 1.6 mph2.6 kmh 30.23 in1023.7 mb 0.00 in0.0 mm 0.00 in0.0 mm 0.00 in0.0 mm
04:55 AM 44.1°F6.7°C 41.6°F5.3°C 91% 0.5 mph S0.8 kmh S 1.6 mph2.6 kmh 30.24 in1024.0 mb 0.00 in0.0 mm 0.00 in0.0 mm 0.00 in0.0 mm
05:00 AM 44.1°F6.7°C 41.6°F5.3°C 91% Calm Calm -- 30.24 in1024.0 mb 0.00 in0.0 mm 0.00 in0.0 mm 0.00 in0.0 mm
05:05 AM 43.9°F6.6°C 41.4°F5.2°C 91% Calm Calm -- 30.24 in1024.0 mb 0.00 in0.0 mm 0.00 in0.0 mm 0.00 in0.0 mm
05:10 AM 43.7°F6.5°C 41.2°F5.1°C 91% Calm Calm -- 30.25 in1024.4 mb 0.00 in0.0 mm 0.00 in0.0 mm 0.00 in0.0 mm
05:15 AM 43.5°F6.4°C 41.1°F5.1°C 91% 0.2 mph SSW0.3 kmh SSW 0.7 mph1.1 kmh 30.24 in1024.0 mb 0.00 in0.0 mm 0.00 in0.0 mm 0.00 in0.0 mm
05:20 AM 43.5°F6.4°C 41.1°F5.1°C 91% 0.6 mph S1.0 kmh S 1.6 mph2.6 kmh 30.25 in1024.4 mb 0.00 in0.0 mm 0.00 in0.0 mm 0.00 in0.0 mm
05:25 AM 43.3°F6.3°C 40.9°F4.9°C 91% 0.6 mph S1.0 kmh S 1.6 mph2.6 kmh 30.25 in1024.4 mb 0.00 in0.0 mm 0.00 in0.0 mm 0.00 in0.0 mm
05:30 AM 43.3°F6.3°C 41.2°F5.1°C 92% 0.3 mph N0.5 kmh N 1.6 mph2.6 kmh 30.25 in1024.4 mb 0.00 in0.0 mm 0.00 in0.0 mm 0.00 in0.0 mm
05:35 AM 43.2°F6.2°C 41.0°F5.0°C 92% 0.4 mph W0.6 kmh W 1.6 mph2.6 kmh 30.25 in1024.4 mb 0.00 in0.0 mm 0.00 in0.0 mm 0.00 in0.0 mm
05:40 AM 43.2°F6.2°C 41.0°F5.0°C 92% 0.5 mph SW0.8 kmh SW 1.6 mph2.6 kmh 30.25 in1024.4 mb 0.00 in0.0 mm 0.00 in0.0 mm 0.00 in0.0 mm
05:45 AM 43.5°F6.4°C 41.4°F5.2°C 92% 0.4 mph SSW0.6 kmh SSW 1.6 mph2.6 kmh 30.25 in1024.4 mb 0.00 in0.0 mm 0.00 in0.0 mm 0.00 in0.0 mm
05:50 AM 43.7°F6.5°C 41.5°F5.3°C 92% 0.4 mph ESE0.6 kmh ESE 1.6 mph2.6 kmh 30.25 in1024.4 mb 0.00 in0.0 mm 0.00 in0.0 mm 0.00 in0.0 mm
05:55 AM 43.7°F6.5°C 41.5°F5.3°C 92% 0.4 mph E0.6 kmh E 1.6 mph2.6 kmh 30.25 in1024.4 mb 0.00 in0.0 mm 0.00 in0.0 mm 0.00 in0.0 mm
06:00 AM 43.9°F6.6°C 41.7°F5.4°C 92% 0.2 mph ESE0.3 kmh ESE 1.6 mph2.6 kmh 30.25 in1024.4 mb 0.00 in0.0 mm 0.00 in0.0 mm 0.00 in0.0 mm
06:05 AM 43.9°F6.6°C 41.7°F5.4°C 92% 0.2 mph S0.3 kmh S 1.6 mph2.6 kmh 30.25 in1024.4 mb 0.00 in0.0 mm 0.00 in0.0 mm 0.00 in0.0 mm
06:10 AM 44.1°F6.7°C 41.9°F5.5°C 92% 0.5 mph S0.8 kmh S 1.6 mph2.6 kmh 30.25 in1024.4 mb 0.00 in0.0 mm 0.00 in0.0 mm 0.00 in0.0 mm
06:15 AM 43.9°F6.6°C 41.7°F5.4°C 92% 0.6 mph S1.0 kmh S 1.6 mph2.6 kmh 30.25 in1024.4 mb 0.00 in0.0 mm 0.00 in0.0 mm 0.00 in0.0 mm
06:20 AM 43.7°F6.5°C 41.5°F5.3°C 92% 0.7 mph S1.1 kmh S 1.6 mph2.6 kmh 30.25 in1024.4 mb 0.00 in0.0 mm 0.00 in0.0 mm 0.00 in0.0 mm
06:25 AM 43.5°F6.4°C 41.4°F5.2°C 92% 0.4 mph SSE0.6 kmh SSE 1.6 mph2.6 kmh 30.25 in1024.4 mb 0.00 in0.0 mm 0.00 in0.0 mm 0.00 in0.0 mm
06:30 AM 43.2°F6.2°C 41.0°F5.0°C 92% 0.1 mph SE0.2 kmh SE 0.7 mph1.1 kmh 30.26 in1024.7 mb 0.00 in0.0 mm 0.00 in0.0 mm 0.00 in0.0 mm
06:35 AM 43.2°F6.2°C 41.0°F5.0°C 92% 0.2 mph S0.3 kmh S 0.7 mph1.1 kmh 30.25 in1024.4 mb 0.00 in0.0 mm 0.00 in0.0 mm 0.00 in0.0 mm
06:40 AM 43.2°F6.2°C 41.3°F5.2°C 93% 0.7 mph S1.1 kmh S 1.6 mph2.6 kmh 30.25 in1024.4 mb 0.00 in0.0 mm 0.00 in0.0 mm 0.00 in0.0 mm
06:45 AM 43.2°F6.2°C 41.3°F5.2°C 93% 0.7 mph S1.1 kmh S 1.6 mph2.6 kmh 30.25 in1024.4 mb 0.00 in0.0 mm 0.00 in0.0 mm 0.00 in0.0 mm
06:50 AM 43.3°F6.3°C 41.5°F5.3°C 93% 0.2 mph S0.3 kmh S 1.6 mph2.6 kmh 30.26 in1024.7 mb 0.00 in0.0 mm 0.00 in0.0 mm 0.00 in0.0 mm
06:55 AM 43.3°F6.3°C 41.5°F5.3°C 93% Calm Calm -- 30.26 in1024.7 mb 0.00 in0.0 mm 0.00 in0.0 mm 0.00 in0.0 mm
07:00 AM 43.3°F6.3°C 41.5°F5.3°C 93% Calm Calm -- 30.26 in1024.7 mb 0.00 in0.0 mm 0.00 in0.0 mm 0.00 in0.0 mm
07:05 AM 43.3°F6.3°C 41.5°F5.3°C 93% Calm Calm 1.6 mph2.6 kmh 30.26 in1024.7 mb 0.00 in0.0 mm 0.00 in0.0 mm 0.00 in0.0 mm
07:10 AM 43.3°F6.3°C 41.5°F5.3°C 93% 0.5 mph SSE0.8 kmh SSE 1.6 mph2.6 kmh 30.26 in1024.7 mb 0.00 in0.0 mm 0.00 in0.0 mm 0.00 in0.0 mm
07:15 AM 43.3°F6.3°C 41.5°F5.3°C 93% 0.8 mph S1.3 kmh S 1.6 mph2.6 kmh 30.25 in1024.4 mb 0.00 in0.0 mm 0.00 in0.0 mm 0.00 in0.0 mm
07:20 AM 43.5°F6.4°C 41.9°F5.5°C 94% 0.3 mph SW0.5 kmh SW 0.7 mph1.1 kmh 30.26 in1024.7 mb 0.00 in0.0 mm 0.00 in0.0 mm 0.00 in0.0 mm
07:25 AM 43.7°F6.5°C 42.1°F5.6°C 94% 0.2 mph WSW0.3 kmh WSW 0.7 mph1.1 kmh 30.27 in1025.1 mb 0.00 in0.0 mm 0.00 in0.0 mm 0.00 in0.0 mm
07:30 AM 43.9°F6.6°C 42.3°F5.7°C 94% 0.9 mph NW1.4 kmh NW 2.2 mph3.5 kmh 30.27 in1025.1 mb 0.00 in0.0 mm 0.00 in0.0 mm 0.00 in0.0 mm
07:35 AM 43.9°F6.6°C 42.3°F5.7°C 94% 1.4 mph N2.3 kmh N 2.2 mph3.5 kmh 30.26 in1024.7 mb 0.00 in0.0 mm 0.00 in0.0 mm 0.00 in0.0 mm
07:40 AM 44.1°F6.7°C 42.4°F5.8°C 94% 1.1 mph NE1.8 kmh NE 2.2 mph3.5 kmh 30.26 in1024.7 mb 0.00 in0.0 mm 0.00 in0.0 mm 0.00 in0.0 mm
07:45 AM 44.2°F6.8°C 42.6°F5.9°C 94% 0.7 mph SSE1.1 kmh SSE 2.2 mph3.5 kmh 30.26 in1024.7 mb 0.00 in0.0 mm 0.00 in0.0 mm 0.00 in0.0 mm
07:50 AM 44.6°F7.0°C 43.0°F6.1°C 94% 0.3 mph WSW0.5 kmh WSW 1.6 mph2.6 kmh 30.26 in1024.7 mb 0.00 in0.0 mm 0.00 in0.0 mm 0.00 in0.0 mm
07:55 AM 44.8°F7.1°C 43.2°F6.2°C 94% Calm Calm -- 30.26 in1024.7 mb 0.00 in0.0 mm 0.00 in0.0 mm 0.00 in0.0 mm
08:00 AM 44.8°F7.1°C 43.2°F6.2°C 94% 0.3 mph WNW0.5 kmh WNW 1.6 mph2.6 kmh 30.26 in1024.7 mb 0.00 in0.0 mm 0.00 in0.0 mm 0.00 in0.0 mm
08:05 AM 45.1°F7.3°C 43.5°F6.4°C 94% 0.7 mph WNW1.1 kmh WNW 1.6 mph2.6 kmh 30.27 in1025.1 mb 0.00 in0.0 mm 0.00 in0.0 mm 0.00 in0.0 mm
08:10 AM 45.3°F7.4°C 43.7°F6.5°C 94% 1.1 mph WNW1.8 kmh WNW 1.6 mph2.6 kmh 30.27 in1025.1 mb 0.00 in0.0 mm 0.00 in0.0 mm 0.00 in0.0 mm
08:15 AM 45.5°F7.5°C 43.9°F6.6°C 94% 0.9 mph W1.4 kmh W 1.6 mph2.6 kmh 30.27 in1025.1 mb 0.00 in0.0 mm 0.00 in0.0 mm 0.00 in0.0 mm
08:20 AM 45.7°F7.6°C 44.1°F6.7°C 94% 0.4 mph WSW0.6 kmh WSW 1.6 mph2.6 kmh 30.26 in1024.7 mb 0.00 in0.0 mm 0.00 in0.0 mm 0.00 in0.0 mm
08:25 AM 46.0°F7.8°C 44.1°F6.7°C 93% 0.2 mph W0.3 kmh W 1.6 mph2.6 kmh 30.27 in1025.1 mb 0.00 in0.0 mm 0.00 in0.0 mm 0.00 in0.0 mm
08:30 AM 46.2°F7.9°C 44.3°F6.8°C 93% 0.3 mph SSE0.5 kmh SSE 1.6 mph2.6 kmh 30.26 in1024.7 mb 0.00 in0.0 mm 0.00 in0.0 mm 0.00 in0.0 mm
08:35 AM 46.4°F8.0°C 44.5°F6.9°C 93% 0.6 mph S1.0 kmh S 1.6 mph2.6 kmh 30.27 in1025.1 mb 0.00 in0.0 mm 0.00 in0.0 mm 0.00 in0.0 mm
08:40 AM 46.6°F8.1°C 44.7°F7.1°C 93% 0.4 mph S0.6 kmh S 1.6 mph2.6 kmh 30.27 in1025.1 mb 0.00 in0.0 mm 0.00 in0.0 mm 0.00 in0.0 mm
08:45 AM 46.6°F8.1°C 44.7°F7.1°C 93% 0.2 mph S0.3 kmh S 1.6 mph2.6 kmh 30.26 in1024.7 mb 0.00 in0.0 mm 0.00 in0.0 mm 0.00 in0.0 mm
08:50 AM 46.8°F8.2°C 44.8°F7.1°C 93% 0.4 mph SE0.6 kmh SE 1.6 mph2.6 kmh 30.27 in1025.1 mb 0.01 in0.3 mm 0.12 in3.0 mm 0.01 in0.3 mm
08:55 AM 46.8°F8.2°C 44.8°F7.1°C 93% 0.6 mph SE1.0 kmh SE 2.2 mph3.5 kmh 30.27 in1025.1 mb 0.01 in0.3 mm 0.00 in0.0 mm 0.01 in0.3 mm
09:00 AM 46.8°F8.2°C 44.8°F7.1°C 93% 0.6 mph S1.0 kmh S 2.2 mph3.5 kmh 30.27 in1025.1 mb 0.01 in0.3 mm 0.00 in0.0 mm 0.01 in0.3 mm
09:05 AM 46.9°F8.3°C 45.3°F7.4°C 94% 0.4 mph N0.6 kmh N 1.6 mph2.6 kmh 30.26 in1024.7 mb 0.01 in0.3 mm 0.00 in0.0 mm 0.01 in0.3 mm
09:10 AM 47.1°F8.4°C 45.5°F7.5°C 94% 0.9 mph ESE1.4 kmh ESE 3.8 mph6.1 kmh 30.27 in1025.1 mb 0.01 in0.3 mm 0.00 in0.0 mm 0.01 in0.3 mm
09:15 AM 47.1°F8.4°C 45.5°F7.5°C 94% 2.6 mph E4.2 kmh E 4.5 mph7.2 kmh 30.27 in1025.1 mb 0.01 in0.3 mm 0.00 in0.0 mm 0.01 in0.3 mm
09:20 AM 47.3°F8.5°C 45.7°F7.6°C 94% 2.8 mph E4.5 kmh E 4.5 mph7.2 kmh 30.27 in1025.1 mb 0.01 in0.3 mm 0.00 in0.0 mm 0.01 in0.3 mm
09:25 AM 47.3°F8.5°C 45.7°F7.6°C 94% 1.7 mph NE2.7 kmh NE 3.1 mph5.0 kmh 30.26 in1024.7 mb 0.01 in0.3 mm 0.00 in0.0 mm 0.01 in0.3 mm
09:30 AM 47.3°F8.5°C 45.7°F7.6°C 94% 1.0 mph N1.6 kmh N 2.2 mph3.5 kmh 30.26 in1024.7 mb 0.01 in0.3 mm 0.00 in0.0 mm 0.01 in0.3 mm
09:35 AM 47.3°F8.5°C 45.7°F7.6°C 94% 1.1 mph NNE1.8 kmh NNE 2.2 mph3.5 kmh 30.26 in1024.7 mb 0.01 in0.3 mm 0.00 in0.0 mm 0.01 in0.3 mm
09:40 AM 47.5°F8.6°C 45.8°F7.7°C 94% 1.2 mph NNE1.9 kmh NNE 2.2 mph3.5 kmh 30.26 in1024.7 mb 0.01 in0.3 mm 0.00 in0.0 mm 0.01 in0.3 mm
09:45 AM 47.7°F8.7°C 46.0°F7.8°C 94% 1.2 mph NE1.9 kmh NE 2.2 mph3.5 kmh 30.26 in1024.7 mb 0.01 in0.3 mm 0.00 in0.0 mm 0.01 in0.3 mm
09:50 AM 47.8°F8.8°C 46.2°F7.9°C 94% 2.0 mph E3.2 kmh E 3.1 mph5.0 kmh 30.26 in1024.7 mb 0.00 in0.0 mm 0.00 in0.0 mm 0.01 in0.3 mm
09:55 AM 48.0°F8.9°C 46.1°F7.8°C 93% 1.8 mph E2.9 kmh E 3.1 mph5.0 kmh 30.26 in1024.7 mb 0.00 in0.0 mm 0.00 in0.0 mm 0.01 in0.3 mm
10:00 AM 48.2°F9.0°C 46.3°F7.9°C 93% 1.0 mph E1.6 kmh E 3.1 mph5.0 kmh 30.27 in1025.1 mb 0.00 in0.0 mm 0.00 in0.0 mm 0.01 in0.3 mm
10:05 AM 48.4°F9.1°C 46.5°F8.1°C 93% 1.6 mph ESE2.6 kmh ESE 4.5 mph7.2 kmh 30.26 in1024.7 mb 0.00 in0.0 mm 0.00 in0.0 mm 0.01 in0.3 mm
10:10 AM 48.7°F9.3°C 46.8°F8.2°C 93% 3.3 mph E5.3 kmh E 6.0 mph9.7 kmh 30.26 in1024.7 mb 0.00 in0.0 mm 0.00 in0.0 mm 0.01 in0.3 mm
10:15 AM 49.6°F9.8°C 47.7°F8.7°C 93% 4.3 mph E6.9 kmh E 6.0 mph9.7 kmh 30.26 in1024.7 mb 0.00 in0.0 mm 0.00 in0.0 mm 0.01 in0.3 mm
10:20 AM 50.5°F10.3°C 48.3°F9.1°C 92% 4.1 mph E6.6 kmh E 7.6 mph12.2 kmh 30.26 in1024.7 mb 0.00 in0.0 mm 0.00 in0.0 mm 0.01 in0.3 mm
10:25 AM 51.3°F10.7°C 48.4°F9.1°C 90% 4.0 mph SE6.4 kmh SE 7.6 mph12.2 kmh 30.26 in1024.7 mb 0.00 in0.0 mm 0.00 in0.0 mm 0.01 in0.3 mm
10:30 AM 51.8°F11.0°C 48.7°F9.3°C 89% 4.7 mph ESE7.6 kmh ESE 8.3 mph13.4 kmh 30.26 in1024.7 mb 0.00 in0.0 mm 0.00 in0.0 mm 0.01 in0.3 mm
10:35 AM 51.8°F11.0°C 48.4°F9.1°C 88% 5.2 mph E8.4 kmh E 8.3 mph13.4 kmh 30.26 in1024.7 mb 0.00 in0.0 mm 0.00 in0.0 mm 0.01 in0.3 mm
10:40 AM 52.0°F11.1°C 48.2°F9.0°C 87% 5.4 mph ESE8.7 kmh ESE 8.3 mph13.4 kmh 30.25 in1024.4 mb 0.00 in0.0 mm 0.00 in0.0 mm 0.01 in0.3 mm
10:45 AM 52.3°F11.3°C 48.3°F9.1°C 86% 5.1 mph ESE8.2 kmh ESE 7.6 mph12.2 kmh 30.26 in1024.7 mb 0.00 in0.0 mm 0.00 in0.0 mm 0.01 in0.3 mm
10:50 AM 52.3°F11.3°C 48.6°F9.2°C 87% 4.0 mph SE6.4 kmh SE 5.4 mph8.7 kmh 30.26 in1024.7 mb 0.00 in0.0 mm 0.00 in0.0 mm 0.01 in0.3 mm
10:55 AM 52.0°F11.1°C 47.9°F8.8°C 86% 3.7 mph SE6.0 kmh SE 5.4 mph8.7 kmh 30.26 in1024.7 mb 0.00 in0.0 mm 0.00 in0.0 mm 0.01 in0.3 mm
11:00 AM 51.6°F10.9°C 47.6°F8.7°C 86% 3.6 mph SE5.8 kmh SE 5.4 mph8.7 kmh 30.25 in1024.4 mb 0.00 in0.0 mm 0.00 in0.0 mm 0.01 in0.3 mm
11:05 AM 52.0°F11.1°C 48.2°F9.0°C 87% 3.4 mph SE5.5 kmh SE 5.4 mph8.7 kmh 30.25 in1024.4 mb 0.00 in0.0 mm 0.00 in0.0 mm 0.01 in0.3 mm
11:10 AM 52.3°F11.3°C 48.3°F9.1°C 86% 3.8 mph SE6.1 kmh SE 6.9 mph11.1 kmh 30.25 in1024.4 mb 0.00 in0.0 mm 0.00 in0.0 mm 0.01 in0.3 mm
11:15 AM 52.7°F11.5°C 48.3°F9.1°C 85% 4.4 mph E7.1 kmh E 6.9 mph11.1 kmh 30.25 in1024.4 mb 0.00 in0.0 mm 0.00 in0.0 mm 0.01 in0.3 mm
11:20 AM 53.2°F11.8°C 48.5°F9.2°C 84% 5.0 mph E8.0 kmh E 6.9 mph11.1 kmh 30.25 in1024.4 mb 0.00 in0.0 mm 0.00 in0.0 mm 0.01 in0.3 mm
11:25 AM 53.6°F12.0°C 48.9°F9.4°C 84% 4.7 mph ESE7.6 kmh ESE 6.9 mph11.1 kmh 30.25 in1024.4 mb 0.00 in0.0 mm 0.00 in0.0 mm 0.01 in0.3 mm
11:30 AM 53.6°F12.0°C 48.9°F9.4°C 84% 4.0 mph SE6.4 kmh SE 5.4 mph8.7 kmh 30.24 in1024.0 mb 0.00 in0.0 mm 0.00 in0.0 mm 0.01 in0.3 mm
11:35 AM 53.4°F11.9°C 48.4°F9.1°C 83% 4.5 mph E7.2 kmh E 6.0 mph9.7 kmh 30.25 in1024.4 mb 0.00 in0.0 mm 0.00 in0.0 mm 0.01 in0.3 mm
11:40 AM 53.1°F11.7°C 48.0°F8.9°C 83% 4.4 mph E7.1 kmh E 6.0 mph9.7 kmh 30.24 in1024.0 mb 0.00 in0.0 mm 0.00 in0.0 mm 0.01 in0.3 mm
11:45 AM 53.1°F11.7°C 48.0°F8.9°C 83% 3.6 mph ESE5.8 kmh ESE 5.4 mph8.7 kmh 30.24 in1024.0 mb 0.00 in0.0 mm 0.00 in0.0 mm 0.01 in0.3 mm
11:50 AM 53.1°F11.7°C 48.0°F8.9°C 83% 3.6 mph ESE5.8 kmh ESE 5.4 mph8.7 kmh 30.23 in1023.7 mb 0.00 in0.0 mm 0.00 in0.0 mm 0.01 in0.3 mm
11:55 AM 53.2°F11.8°C 48.2°F9.0°C 83% 4.5 mph E7.2 kmh E 6.9 mph11.1 kmh 30.23 in1023.7 mb 0.00 in0.0 mm 0.00 in0.0 mm 0.01 in0.3 mm
12:00 PM 53.4°F11.9°C 48.4°F9.1°C 83% 4.3 mph ESE6.9 kmh ESE 6.9 mph11.1 kmh 30.23 in1023.7 mb 0.00 in0.0 mm 0.00 in0.0 mm 0.01 in0.3 mm
12:05 PM 53.6°F12.0°C 48.6°F9.2°C 83% 3.9 mph SE6.3 kmh SE 5.4 mph8.7 kmh 30.22 in1023.4 mb 0.00 in0.0 mm 0.00 in0.0 mm 0.01 in0.3 mm
12:10 PM 53.6°F12.0°C 48.2°F9.0°C 82% 4.5 mph SE7.2 kmh SE 5.4 mph8.7 kmh 30.22 in1023.4 mb 0.00 in0.0 mm 0.00 in0.0 mm 0.01 in0.3 mm
12:15 PM 53.6°F12.0°C 48.2°F9.0°C 82% 4.3 mph SE6.9 kmh SE 6.9 mph11.1 kmh 30.22 in1023.4 mb 0.00 in0.0 mm 0.00 in0.0 mm 0.01 in0.3 mm
12:20 PM 54.1°F12.3°C 49.1°F9.5°C 83% 4.3 mph E6.9 kmh E 8.3 mph13.4 kmh 30.22 in1023.4 mb 0.00 in0.0 mm 0.00 in0.0 mm 0.01 in0.3 mm
12:25 PM 54.3°F12.4°C 49.0°F9.4°C 82% 5.3 mph ESE8.5 kmh ESE 8.3 mph13.4 kmh 30.21 in1023.0 mb 0.00 in0.0 mm 0.00 in0.0 mm 0.01 in0.3 mm
12:30 PM 54.1°F12.3°C 48.4°F9.1°C 81% 5.9 mph ESE9.5 kmh ESE 7.6 mph12.2 kmh 30.22 in1023.4 mb 0.00 in0.0 mm 0.00 in0.0 mm 0.01 in0.3 mm
12:35 PM 54.1°F12.3°C 48.8°F9.3°C 82% 5.4 mph SE8.7 kmh SE 7.6 mph12.2 kmh 30.21 in1023.0 mb 0.00 in0.0 mm 0.00 in0.0 mm 0.01 in0.3 mm
12:40 PM 54.1°F12.3°C 48.4°F9.1°C 81% 4.8 mph SE7.7 kmh SE 6.9 mph11.1 kmh 30.21 in1023.0 mb 0.00 in0.0 mm 0.00 in0.0 mm 0.01 in0.3 mm
12:45 PM 54.0°F12.2°C 48.6°F9.2°C 82% 3.9 mph SE6.3 kmh SE 6.0 mph9.7 kmh 30.21 in1023.0 mb 0.00 in0.0 mm 0.00 in0.0 mm 0.01 in0.3 mm
12:50 PM 54.0°F12.2°C 48.6°F9.2°C 82% 4.0 mph SE6.4 kmh SE 6.9 mph11.1 kmh 30.21 in1023.0 mb 0.00 in0.0 mm 0.00 in0.0 mm 0.01 in0.3 mm
12:55 PM 54.0°F12.2°C 48.6°F9.2°C 82% 4.0 mph ESE6.4 kmh ESE 6.9 mph11.1 kmh 30.21 in1023.0 mb 0.00 in0.0 mm 0.00 in0.0 mm 0.01 in0.3 mm
01:00 PM 54.1°F12.3°C 48.8°F9.3°C 82% 3.8 mph ESE6.1 kmh ESE 6.9 mph11.1 kmh 30.21 in1023.0 mb 0.00 in0.0 mm 0.00 in0.0 mm 0.01 in0.3 mm
01:05 PM 54.3°F12.4°C 49.0°F9.4°C 82% 4.1 mph ESE6.6 kmh ESE 6.9 mph11.1 kmh 30.20 in1022.7 mb 0.00 in0.0 mm 0.00 in0.0 mm 0.01 in0.3 mm
01:10 PM 54.5°F12.5°C 48.8°F9.3°C 81% 4.7 mph SE7.6 kmh SE 6.9 mph11.1 kmh 30.20 in1022.7 mb 0.00 in0.0 mm 0.00 in0.0 mm 0.01 in0.3 mm
01:15 PM 54.7°F12.6°C 49.0°F9.4°C 81% 4.8 mph SE7.7 kmh SE 6.9 mph11.1 kmh 30.20 in1022.7 mb 0.00 in0.0 mm 0.00 in0.0 mm 0.01 in0.3 mm
01:20 PM 55.2°F12.9°C 49.5°F9.7°C 81% 4.1 mph ESE6.6 kmh ESE 5.4 mph8.7 kmh 30.19 in1022.4 mb 0.00 in0.0 mm 0.00 in0.0 mm 0.01 in0.3 mm
01:25 PM 55.8°F13.2°C 49.7°F9.8°C 80% 4.0 mph ESE6.4 kmh ESE 5.4 mph8.7 kmh 30.20 in1022.7 mb 0.00 in0.0 mm 0.00 in0.0 mm 0.01 in0.3 mm
01:30 PM 56.7°F13.7°C 50.6°F10.3°C 80% 4.5 mph ESE7.2 kmh ESE 6.9 mph11.1 kmh 30.19 in1022.4 mb 0.00 in0.0 mm 0.00 in0.0 mm 0.01 in0.3 mm
01:35 PM 57.0°F13.9°C 50.2°F10.1°C 78% 5.2 mph ESE8.4 kmh ESE 6.9 mph11.1 kmh 30.19 in1022.4 mb 0.00 in0.0 mm 0.00 in0.0 mm 0.01 in0.3 mm
01:40 PM 57.4°F14.1°C 50.2°F10.1°C 77% 4.9 mph ESE7.9 kmh ESE 6.9 mph11.1 kmh 30.19 in1022.4 mb 0.00 in0.0 mm 0.00 in0.0 mm 0.01 in0.3 mm
01:45 PM 56.7°F13.7°C 49.2°F9.6°C 76% 4.4 mph SE7.1 kmh SE 6.9 mph11.1 kmh 30.19 in1022.4 mb 0.00 in0.0 mm 0.00 in0.0 mm 0.01 in0.3 mm
01:50 PM 56.3°F13.5°C 49.2°F9.6°C 77% 4.0 mph ESE6.4 kmh ESE 6.0 mph9.7 kmh 30.19 in1022.4 mb 0.00 in0.0 mm 0.00 in0.0 mm 0.01 in0.3 mm
01:55 PM 56.1°F13.4°C 49.0°F9.4°C 77% 3.2 mph E5.1 kmh E 6.0 mph9.7 kmh 30.19 in1022.4 mb 0.00 in0.0 mm 0.00 in0.0 mm 0.01 in0.3 mm
02:00 PM 55.9°F13.3°C 48.8°F9.3°C 77% 2.9 mph ESE4.7 kmh ESE 3.8 mph6.1 kmh 30.19 in1022.4 mb 0.00 in0.0 mm 0.00 in0.0 mm 0.01 in0.3 mm
02:05 PM 55.9°F13.3°C 48.8°F9.3°C 77% 3.0 mph E4.8 kmh E 3.8 mph6.1 kmh 30.19 in1022.4 mb 0.00 in0.0 mm 0.00 in0.0 mm 0.01 in0.3 mm
02:10 PM 56.1°F13.4°C 49.0°F9.4°C 77% 3.3 mph E5.3 kmh E 5.4 mph8.7 kmh 30.19 in1022.4 mb 0.00 in0.0 mm 0.00 in0.0 mm 0.01 in0.3 mm
02:15 PM 56.1°F13.4°C 49.0°F9.4°C 77% 3.6 mph ENE5.8 kmh ENE 5.4 mph8.7 kmh 30.18 in1022.0 mb 0.00 in0.0 mm 0.00 in0.0 mm 0.01 in0.3 mm
02:20 PM 55.9°F13.3°C 48.8°F9.3°C 77% 3.6 mph ENE5.8 kmh ENE 5.4 mph8.7 kmh 30.18 in1022.0 mb 0.00 in0.0 mm 0.00 in0.0 mm 0.01 in0.3 mm
02:25 PM 55.8°F13.2°C 49.0°F9.4°C 78% 3.6 mph E5.8 kmh E 5.4 mph8.7 kmh 30.18 in1022.0 mb 0.00 in0.0 mm 0.00 in0.0 mm 0.01 in0.3 mm
02:30 PM 55.9°F13.3°C 49.2°F9.6°C 78% 3.2 mph E5.1 kmh E 4.5 mph7.2 kmh 30.18 in1022.0 mb 0.00 in0.0 mm 0.00 in0.0 mm 0.01 in0.3 mm
02:35 PM 56.3°F13.5°C 49.5°F9.7°C 78% 3.3 mph ESE5.3 kmh ESE 4.5 mph7.2 kmh 30.18 in1022.0 mb 0.00 in0.0 mm 0.00 in0.0 mm 0.01 in0.3 mm
02:40 PM 56.5°F13.6°C 49.4°F9.7°C 77% 3.9 mph ESE6.3 kmh ESE 5.4 mph8.7 kmh 30.18 in1022.0 mb 0.00 in0.0 mm 0.00 in0.0 mm 0.01 in0.3 mm
02:45 PM 56.1°F13.4°C 49.0°F9.4°C 77% 4.5 mph ESE7.2 kmh ESE 6.0 mph9.7 kmh 30.18 in1022.0 mb 0.00 in0.0 mm 0.00 in0.0 mm 0.01 in0.3 mm
02:50 PM 55.8°F13.2°C 48.7°F9.3°C 77% 4.5 mph SE7.2 kmh SE 6.0 mph9.7 kmh 30.19 in1022.4 mb 0.00 in0.0 mm 0.00 in0.0 mm 0.01 in0.3 mm
02:55 PM 55.6°F13.1°C 48.8°F9.3°C 78% 4.0 mph SE6.4 kmh SE 5.4 mph8.7 kmh 30.18 in1022.0 mb 0.00 in0.0 mm 0.00 in0.0 mm 0.01 in0.3 mm
03:00 PM 55.6°F13.1°C 48.8°F9.3°C 78% 4.3 mph SE6.9 kmh SE 5.4 mph8.7 kmh 30.18 in1022.0 mb 0.00 in0.0 mm 0.00 in0.0 mm 0.01 in0.3 mm
03:05 PM 55.4°F13.0°C 48.7°F9.3°C 78% 4.3 mph SE6.9 kmh SE 5.4 mph8.7 kmh 30.18 in1022.0 mb 0.00 in0.0 mm 0.00 in0.0 mm 0.01 in0.3 mm
03:10 PM 55.2°F12.9°C 48.5°F9.2°C 78% 4.2 mph SE6.8 kmh SE 6.0 mph9.7 kmh 30.18 in1022.0 mb 0.00 in0.0 mm 0.00 in0.0 mm 0.01 in0.3 mm
03:15 PM 55.4°F13.0°C 48.7°F9.3°C 78% 4.5 mph ESE7.2 kmh ESE 6.0 mph9.7 kmh 30.18 in1022.0 mb 0.00 in0.0 mm 0.00 in0.0 mm 0.01 in0.3 mm
03:20 PM 55.8°F13.2°C 49.0°F9.4°C 78% 4.9 mph ESE7.9 kmh ESE 6.0 mph9.7 kmh 30.18 in1022.0 mb 0.00 in0.0 mm 0.00 in0.0 mm 0.01 in0.3 mm
03:25 PM 56.3°F13.5°C 49.5°F9.7°C 78% 5.3 mph E8.5 kmh E 6.0 mph9.7 kmh 30.18 in1022.0 mb 0.00 in0.0 mm 0.00 in0.0 mm 0.01 in0.3 mm
03:30 PM 56.3°F13.5°C 49.2°F9.6°C 77% 5.1 mph ESE8.2 kmh ESE 6.0 mph9.7 kmh 30.18 in1022.0 mb 0.00 in0.0 mm 0.00 in0.0 mm 0.01 in0.3 mm
03:35 PM 56.3°F13.5°C 49.2°F9.6°C 77% 4.3 mph E6.9 kmh E 6.0 mph9.7 kmh 30.18 in1022.0 mb 0.00 in0.0 mm 0.00 in0.0 mm 0.01 in0.3 mm
03:40 PM 56.1°F13.4°C 49.0°F9.4°C 77% 4.0 mph ESE6.4 kmh ESE 5.4 mph8.7 kmh 30.18 in1022.0 mb 0.00 in0.0 mm 0.00 in0.0 mm 0.01 in0.3 mm
03:45 PM 56.1°F13.4°C 49.0°F9.4°C 77% 4.2 mph ESE6.8 kmh ESE 5.4 mph8.7 kmh 30.18 in1022.0 mb 0.00 in0.0 mm 0.00 in0.0 mm 0.01 in0.3 mm
03:50 PM 56.1°F13.4°C 49.0°F9.4°C 77% 3.7 mph SE6.0 kmh SE 4.5 mph7.2 kmh 30.17 in1021.7 mb 0.00 in0.0 mm 0.00 in0.0 mm 0.01 in0.3 mm
03:55 PM 56.1°F13.4°C 49.4°F9.7°C 78% 3.5 mph SE5.6 kmh SE 4.5 mph7.2 kmh 30.17 in1021.7 mb 0.00 in0.0 mm 0.00 in0.0 mm 0.01 in0.3 mm
04:00 PM 55.9°F13.3°C 48.8°F9.3°C 77% 3.7 mph ESE6.0 kmh ESE 5.4 mph8.7 kmh 30.18 in1022.0 mb 0.00 in0.0 mm 0.00 in0.0 mm 0.01 in0.3 mm
04:05 PM 55.8°F13.2°C 49.0°F9.4°C 78% 3.9 mph ESE6.3 kmh ESE 5.4 mph8.7 kmh 30.18 in1022.0 mb 0.00 in0.0 mm 0.00 in0.0 mm 0.01 in0.3 mm
04:10 PM 55.8°F13.2°C 49.0°F9.4°C 78% 3.4 mph ESE5.5 kmh ESE 5.4 mph8.7 kmh 30.18 in1022.0 mb 0.00 in0.0 mm 0.00 in0.0 mm 0.01 in0.3 mm
04:15 PM 55.8°F13.2°C 49.0°F9.4°C 78% 2.7 mph ESE4.3 kmh ESE 3.8 mph6.1 kmh 30.18 in1022.0 mb 0.00 in0.0 mm 0.00 in0.0 mm 0.01 in0.3 mm
04:20 PM 55.8°F13.2°C 49.4°F9.7°C 79% 2.5 mph E4.0 kmh E 3.1 mph5.0 kmh 30.17 in1021.7 mb 0.00 in0.0 mm 0.00 in0.0 mm 0.01 in0.3 mm
04:25 PM 55.4°F13.0°C 48.7°F9.3°C 78% 2.9 mph ESE4.7 kmh ESE 3.8 mph6.1 kmh 30.17 in1021.7 mb 0.00 in0.0 mm 0.00 in0.0 mm 0.01 in0.3 mm
04:30 PM 55.4°F13.0°C 49.0°F9.4°C 79% 3.1 mph SE5.0 kmh SE 3.8 mph6.1 kmh 30.17 in1021.7 mb 0.00 in0.0 mm 0.00 in0.0 mm 0.01 in0.3 mm
04:35 PM 55.4°F13.0°C 49.0°F9.4°C 79% 2.6 mph SE4.2 kmh SE 3.8 mph6.1 kmh 30.17 in1021.7 mb 0.00 in0.0 mm 0.00 in0.0 mm 0.01 in0.3 mm
04:40 PM 55.2°F12.9°C 48.8°F9.3°C 79% 2.7 mph SE4.3 kmh SE 4.5 mph7.2 kmh 30.17 in1021.7 mb 0.00 in0.0 mm 0.00 in0.0 mm 0.01 in0.3 mm
04:45 PM 54.7°F12.6°C 48.3°F9.1°C 79% 3.3 mph ESE5.3 kmh ESE 4.5 mph7.2 kmh 30.17 in1021.7 mb 0.00 in0.0 mm 0.00 in0.0 mm 0.01 in0.3 mm
04:50 PM 54.3°F12.4°C 48.0°F8.9°C 79% 3.8 mph ESE6.1 kmh ESE 4.5 mph7.2 kmh 30.17 in1021.7 mb 0.00 in0.0 mm 0.00 in0.0 mm 0.01 in0.3 mm
04:55 PM 54.1°F12.3°C 48.1°F8.9°C 80% 3.7 mph SE6.0 kmh SE 4.5 mph7.2 kmh 30.17 in1021.7 mb 0.00 in0.0 mm 0.00 in0.0 mm 0.01 in0.3 mm
05:00 PM 54.0°F12.2°C 47.9°F8.8°C 80% 3.3 mph SE5.3 kmh SE 4.5 mph7.2 kmh 30.17 in1021.7 mb 0.00 in0.0 mm 0.00 in0.0 mm 0.01 in0.3 mm
05:05 PM 53.8°F12.1°C 48.1°F8.9°C 81% 3.6 mph SE5.8 kmh SE 5.4 mph8.7 kmh 30.18 in1022.0 mb 0.00 in0.0 mm 0.00 in0.0 mm 0.01 in0.3 mm
05:10 PM 53.6°F12.0°C 47.9°F8.8°C 81% 4.4 mph SE7.1 kmh SE 6.0 mph9.7 kmh 30.18 in1022.0 mb 0.00 in0.0 mm 0.00 in0.0 mm 0.01 in0.3 mm
05:15 PM 53.4°F11.9°C 47.7°F8.7°C 81% 4.5 mph SE7.2 kmh SE 6.0 mph9.7 kmh 30.18 in1022.0 mb 0.00 in0.0 mm 0.00 in0.0 mm 0.01 in0.3 mm
05:20 PM 53.2°F11.8°C 47.6°F8.7°C 81% 4.2 mph SE6.8 kmh SE 6.0 mph9.7 kmh 30.17 in1021.7 mb 0.00 in0.0 mm 0.00 in0.0 mm 0.01 in0.3 mm
05:25 PM 53.2°F11.8°C 47.9°F8.8°C 82% 3.9 mph SE6.3 kmh SE 6.0 mph9.7 kmh 30.18 in1022.0 mb 0.00 in0.0 mm 0.00 in0.0 mm 0.01 in0.3 mm
05:30 PM 53.1°F11.7°C 47.7°F8.7°C 82% 3.3 mph SE5.3 kmh SE 3.8 mph6.1 kmh 30.18 in1022.0 mb 0.00 in0.0 mm 0.00 in0.0 mm 0.01 in0.3 mm
05:35 PM 53.4°F11.9°C 48.1°F8.9°C 82% 3.3 mph SSE5.3 kmh SSE 3.8 mph6.1 kmh 30.18 in1022.0 mb 0.00 in0.0 mm 0.00 in0.0 mm 0.01 in0.3 mm
05:40 PM 53.8°F12.1°C 48.4°F9.1°C 82% 3.2 mph SE5.1 kmh SE 3.8 mph6.1 kmh 30.18 in1022.0 mb 0.00 in0.0 mm 0.00 in0.0 mm 0.01 in0.3 mm
05:45 PM 54.1°F12.3°C 48.4°F9.1°C 81% 3.4 mph SE5.5 kmh SE 4.5 mph7.2 kmh 30.18 in1022.0 mb 0.00 in0.0 mm 0.00 in0.0 mm 0.01 in0.3 mm
05:50 PM 54.3°F12.4°C 48.3°F9.1°C 80% 3.4 mph SE5.5 kmh SE 4.5 mph7.2 kmh 30.18 in1022.0 mb 0.00 in0.0 mm 0.00 in0.0 mm 0.01 in0.3 mm
05:55 PM 54.0°F12.2°C 47.9°F8.8°C 80% 3.5 mph SE5.6 kmh SE 6.0 mph9.7 kmh 30.18 in1022.0 mb 0.00 in0.0 mm 0.00 in0.0 mm 0.01 in0.3 mm
06:00 PM 53.8°F12.1°C 47.8°F8.8°C 80% 3.6 mph SE5.8 kmh SE 6.0 mph9.7 kmh 30.18 in1022.0 mb 0.00 in0.0 mm 0.00 in0.0 mm 0.01 in0.3 mm
06:05 PM 53.8°F12.1°C 47.8°F8.8°C 80% 3.5 mph SE5.6 kmh SE 4.5 mph7.2 kmh 30.18 in1022.0 mb 0.00 in0.0 mm 0.00 in0.0 mm 0.01 in0.3 mm
06:10 PM 53.6°F12.0°C 47.6°F8.7°C 80% 3.5 mph SE5.6 kmh SE 4.5 mph7.2 kmh 30.19 in1022.4 mb 0.00 in0.0 mm 0.00 in0.0 mm 0.01 in0.3 mm
06:15 PM 53.8°F12.1°C 47.8°F8.8°C 80% 2.8 mph SSE4.5 kmh SSE 3.8 mph6.1 kmh 30.19 in1022.4 mb 0.00 in0.0 mm 0.00 in0.0 mm 0.01 in0.3 mm
06:20 PM 53.8°F12.1°C 47.8°F8.8°C 80% 2.9 mph SSE4.7 kmh SSE 3.8 mph6.1 kmh 30.19 in1022.4 mb 0.00 in0.0 mm 0.00 in0.0 mm 0.01 in0.3 mm
06:25 PM 54.0°F12.2°C 47.9°F8.8°C 80% 3.3 mph SSE5.3 kmh SSE 4.5 mph7.2 kmh 30.19 in1022.4 mb 0.00 in0.0 mm 0.00 in0.0 mm 0.01 in0.3 mm
06:30 PM 53.8°F12.1°C 47.8°F8.8°C 80% 3.3 mph SE5.3 kmh SE 4.5 mph7.2 kmh 30.19 in1022.4 mb 0.00 in0.0 mm 0.00 in0.0 mm 0.01 in0.3 mm
06:35 PM 53.8°F12.1°C 47.8°F8.8°C 80% 3.5 mph SE5.6 kmh SE 4.5 mph7.2 kmh 30.19 in1022.4 mb 0.00 in0.0 mm 0.00 in0.0 mm 0.01 in0.3 mm
06:40 PM 53.6°F12.0°C 47.6°F8.7°C 80% 3.3 mph SE5.3 kmh SE 4.5 mph7.2 kmh 30.19 in1022.4 mb 0.00 in0.0 mm 0.00 in0.0 mm 0.01 in0.3 mm
06:45 PM 53.6°F12.0°C 47.6°F8.7°C 80% 3.0 mph SE4.8 kmh SE 4.5 mph7.2 kmh 30.20 in1022.7 mb 0.00 in0.0 mm 0.00 in0.0 mm 0.01 in0.3 mm
06:50 PM 53.6°F12.0°C 47.6°F8.7°C 80% 3.1 mph SE5.0 kmh SE 4.5 mph7.2 kmh 30.20 in1022.7 mb 0.00 in0.0 mm 0.00 in0.0 mm 0.01 in0.3 mm
06:55 PM 53.6°F12.0°C 47.6°F8.7°C 80% 3.9 mph SE6.3 kmh SE 5.4 mph8.7 kmh 30.20 in1022.7 mb 0.00 in0.0 mm 0.00 in0.0 mm 0.01 in0.3 mm
07:00 PM 53.4°F11.9°C 47.7°F8.7°C 81% 4.5 mph SE7.2 kmh SE 6.0 mph9.7 kmh 30.20 in1022.7 mb 0.00 in0.0 mm 0.00 in0.0 mm 0.01 in0.3 mm
07:05 PM 53.2°F11.8°C 47.6°F8.7°C 81% 4.6 mph SE7.4 kmh SE 6.0 mph9.7 kmh 30.20 in1022.7 mb 0.00 in0.0 mm 0.00 in0.0 mm 0.01 in0.3 mm
07:10 PM 53.2°F11.8°C 47.6°F8.7°C 81% 4.5 mph SE7.2 kmh SE 5.4 mph8.7 kmh 30.20 in1022.7 mb 0.00 in0.0 mm 0.00 in0.0 mm 0.01 in0.3 mm
07:15 PM 53.1°F11.7°C 47.4°F8.6°C 81% 4.1 mph SE6.6 kmh SE 5.4 mph8.7 kmh 30.19 in1022.4 mb 0.00 in0.0 mm 0.00 in0.0 mm 0.01 in0.3 mm
07:20 PM 53.1°F11.7°C 47.4°F8.6°C 81% 4.1 mph SE6.6 kmh SE 6.0 mph9.7 kmh 30.20 in1022.7 mb 0.00 in0.0 mm 0.00 in0.0 mm 0.01 in0.3 mm
07:25 PM 53.1°F11.7°C 47.4°F8.6°C 81% 4.1 mph SE6.6 kmh SE 6.0 mph9.7 kmh 30.20 in1022.7 mb 0.00 in0.0 mm 0.00 in0.0 mm 0.01 in0.3 mm
07:30 PM 52.9°F11.6°C 47.2°F8.4°C 81% 3.4 mph ESE5.5 kmh ESE 4.5 mph7.2 kmh 30.20 in1022.7 mb 0.00 in0.0 mm 0.00 in0.0 mm 0.01 in0.3 mm
07:35 PM 53.1°F11.7°C 47.4°F8.6°C 81% 3.5 mph SE5.6 kmh SE 5.4 mph8.7 kmh 30.20 in1022.7 mb 0.00 in0.0 mm 0.00 in0.0 mm 0.01 in0.3 mm
07:40 PM 53.1°F11.7°C 47.4°F8.6°C 81% 3.6 mph SE5.8 kmh SE 5.4 mph8.7 kmh 30.20 in1022.7 mb 0.00 in0.0 mm 0.00 in0.0 mm 0.01 in0.3 mm
07:45 PM 53.1°F11.7°C 47.4°F8.6°C 81% 3.3 mph SE5.3 kmh SE 4.5 mph7.2 kmh 30.20 in1022.7 mb 0.00 in0.0 mm 0.00 in0.0 mm 0.01 in0.3 mm
07:50 PM 53.1°F11.7°C 47.4°F8.6°C 81% 3.3 mph SE5.3 kmh SE 4.5 mph7.2 kmh 30.20 in1022.7 mb 0.00 in0.0 mm 0.00 in0.0 mm 0.01 in0.3 mm
07:55 PM 53.1°F11.7°C 47.4°F8.6°C 81% 3.4 mph SE5.5 kmh SE 4.5 mph7.2 kmh 30.20 in1022.7 mb 0.00 in0.0 mm 0.00 in0.0 mm 0.01 in0.3 mm
08:00 PM 52.9°F11.6°C 47.2°F8.4°C 81% 3.6 mph SE5.8 kmh SE 4.5 mph7.2 kmh 30.20 in1022.7 mb 0.00 in0.0 mm 0.00 in0.0 mm 0.01 in0.3 mm
08:05 PM 52.9°F11.6°C 47.2°F8.4°C 81% 3.2 mph SE5.1 kmh SE 4.5 mph7.2 kmh 30.20 in1022.7 mb 0.00 in0.0 mm 0.00 in0.0 mm 0.01 in0.3 mm
08:10 PM 52.9°F11.6°C 47.2°F8.4°C 81% 3.0 mph SE4.8 kmh SE 3.8 mph6.1 kmh 30.20 in1022.7 mb 0.00 in0.0 mm 0.00 in0.0 mm 0.01 in0.3 mm
08:15 PM 52.9°F11.6°C 47.2°F8.4°C 81% 2.5 mph SE4.0 kmh SE 3.8 mph6.1 kmh 30.20 in1022.7 mb 0.00 in0.0 mm 0.00 in0.0 mm 0.01 in0.3 mm
08:20 PM 52.7°F11.5°C 47.4°F8.6°C 82% 2.0 mph SE3.2 kmh SE 3.1 mph5.0 kmh 30.21 in1023.0 mb 0.00 in0.0 mm 0.00 in0.0 mm 0.01 in0.3 mm
08:25 PM 52.7°F11.5°C 47.4°F8.6°C 82% 2.2 mph SE3.5 kmh SE 3.1 mph5.0 kmh 30.20 in1022.7 mb 0.00 in0.0 mm 0.00 in0.0 mm 0.01 in0.3 mm
08:30 PM 52.5°F11.4°C 47.2°F8.4°C 82% 1.9 mph SE3.1 kmh SE 3.1 mph5.0 kmh 30.20 in1022.7 mb 0.00 in0.0 mm 0.00 in0.0 mm 0.01 in0.3 mm
08:35 PM 52.3°F11.3°C 47.0°F8.3°C 82% 1.3 mph SSE2.1 kmh SSE 3.1 mph5.0 kmh 30.20 in1022.7 mb 0.00 in0.0 mm 0.00 in0.0 mm 0.01 in0.3 mm
08:40 PM 52.3°F11.3°C 47.0°F8.3°C 82% 0.5 mph S0.8 kmh S 1.6 mph2.6 kmh 30.20 in1022.7 mb 0.00 in0.0 mm 0.00 in0.0 mm 0.01 in0.3 mm
08:45 PM 52.2°F11.2°C 46.8°F8.2°C 82% 0.9 mph E1.4 kmh E 2.2 mph3.5 kmh 30.20 in1022.7 mb 0.00 in0.0 mm 0.00 in0.0 mm 0.01 in0.3 mm
08:50 PM 52.2°F11.2°C 46.8°F8.2°C 82% 1.7 mph ESE2.7 kmh ESE 2.2 mph3.5 kmh 30.20 in1022.7 mb 0.00 in0.0 mm 0.00 in0.0 mm 0.01 in0.3 mm
08:55 PM 52.0°F11.1°C 47.0°F8.3°C 83% 1.2 mph ESE1.9 kmh ESE 2.2 mph3.5 kmh 30.20 in1022.7 mb 0.00 in0.0 mm 0.00 in0.0 mm 0.01 in0.3 mm
09:00 PM 52.0°F11.1°C 47.0°F8.3°C 83% 0.6 mph SE1.0 kmh SE 1.6 mph2.6 kmh 30.20 in1022.7 mb 0.00 in0.0 mm 0.00 in0.0 mm 0.01 in0.3 mm
09:05 PM 51.8°F11.0°C 46.8°F8.2°C 83% 0.3 mph S0.5 kmh S 1.6 mph2.6 kmh 30.20 in1022.7 mb 0.00 in0.0 mm 0.00 in0.0 mm 0.01 in0.3 mm
09:10 PM 51.8°F11.0°C 46.8°F8.2°C 83% 0.2 mph NE0.3 kmh NE 0.7 mph1.1 kmh 30.20 in1022.7 mb 0.00 in0.0 mm 0.00 in0.0 mm 0.01 in0.3 mm
09:15 PM 51.6°F10.9°C 46.9°F8.3°C 84% 0.2 mph NE0.3 kmh NE 0.7 mph1.1 kmh 30.20 in1022.7 mb 0.00 in0.0 mm 0.00 in0.0 mm 0.01 in0.3 mm
09:20 PM 51.4°F10.8°C 46.8°F8.2°C 84% 0.1 mph S0.2 kmh S 0.7 mph1.1 kmh 30.20 in1022.7 mb 0.00 in0.0 mm 0.00 in0.0 mm 0.01 in0.3 mm
09:25 PM 51.3°F10.7°C 46.6°F8.1°C 84% 0.1 mph S0.2 kmh S 0.7 mph1.1 kmh 30.20 in1022.7 mb 0.00 in0.0 mm 0.00 in0.0 mm 0.01 in0.3 mm
09:30 PM 51.3°F10.7°C 46.9°F8.3°C 85% Calm Calm 0.7 mph1.1 kmh 30.20 in1022.7 mb 0.00 in0.0 mm 0.00 in0.0 mm 0.01 in0.3 mm
09:35 PM 51.3°F10.7°C 46.9°F8.3°C 85% 0.1 mph S0.2 kmh S 0.7 mph1.1 kmh 30.20 in1022.7 mb 0.00 in0.0 mm 0.00 in0.0 mm 0.01 in0.3 mm
09:40 PM 51.1°F10.6°C 46.7°F8.2°C 85% 0.1 mph SSW0.2 kmh SSW 0.7 mph1.1 kmh 30.20 in1022.7 mb 0.00 in0.0 mm 0.00 in0.0 mm 0.01 in0.3 mm
09:45 PM 51.1°F10.6°C 47.0°F8.3°C 86% 0.1 mph SW0.2 kmh SW 0.7 mph1.1 kmh 30.20 in1022.7 mb 0.00 in0.0 mm 0.00 in0.0 mm 0.01 in0.3 mm
09:50 PM 51.1°F10.6°C 47.0°F8.3°C 86% Calm Calm -- 30.20 in1022.7 mb 0.00 in0.0 mm 0.00 in0.0 mm 0.01 in0.3 mm
09:55 PM 51.1°F10.6°C 47.0°F8.3°C 86% Calm Calm 0.7 mph1.1 kmh 30.20 in1022.7 mb 0.00 in0.0 mm 0.00 in0.0 mm 0.01 in0.3 mm
10:00 PM 51.1°F10.6°C 47.0°F8.3°C 86% 0.1 mph S0.2 kmh S 0.7 mph1.1 kmh 30.20 in1022.7 mb 0.00 in0.0 mm 0.00 in0.0 mm 0.01 in0.3 mm
10:05 PM 50.9°F10.5°C 46.9°F8.3°C 86% 0.1 mph S0.2 kmh S 0.7 mph1.1 kmh 30.20 in1022.7 mb 0.00 in0.0 mm 0.00 in0.0 mm 0.01 in0.3 mm
10:10 PM 50.9°F10.5°C 46.9°F8.3°C 86% Calm Calm -- 30.20 in1022.7 mb 0.00 in0.0 mm 0.00 in0.0 mm 0.01 in0.3 mm
10:15 PM 50.5°F10.3°C 46.5°F8.1°C 86% 0.6 mph SW1.0 kmh SW 2.2 mph3.5 kmh 30.20 in1022.7 mb 0.00 in0.0 mm 0.00 in0.0 mm 0.01 in0.3 mm
10:20 PM 50.4°F10.2°C 46.6°F8.1°C 87% 0.8 mph SW1.3 kmh SW 2.2 mph3.5 kmh 30.19 in1022.4 mb 0.00 in0.0 mm 0.00 in0.0 mm 0.01 in0.3 mm
10:25 PM 50.5°F10.3°C 46.8°F8.2°C 87% 0.3 mph SW0.5 kmh SW 1.6 mph2.6 kmh 30.19 in1022.4 mb 0.00 in0.0 mm 0.00 in0.0 mm 0.01 in0.3 mm
10:30 PM 50.5°F10.3°C 46.8°F8.2°C 87% 0.2 mph SSW0.3 kmh SSW 0.7 mph1.1 kmh 30.20 in1022.7 mb 0.00 in0.0 mm 0.00 in0.0 mm 0.01 in0.3 mm
10:35 PM 50.4°F10.2°C 46.6°F8.1°C 87% 0.1 mph S0.2 kmh S 0.7 mph1.1 kmh 30.19 in1022.4 mb 0.00 in0.0 mm 0.00 in0.0 mm 0.01 in0.3 mm
10:40 PM 50.4°F10.2°C 46.9°F8.3°C 88% 0.3 mph SW0.5 kmh SW 1.6 mph2.6 kmh 30.20 in1022.7 mb 0.00 in0.0 mm 0.00 in0.0 mm 0.01 in0.3 mm
10:45 PM 50.4°F10.2°C 46.9°F8.3°C 88% 0.3 mph SW0.5 kmh SW 1.6 mph2.6 kmh 30.19 in1022.4 mb 0.00 in0.0 mm 0.00 in0.0 mm 0.01 in0.3 mm
10:50 PM 50.4°F10.2°C 46.9°F8.3°C 88% 0.1 mph S0.2 kmh S 0.7 mph1.1 kmh 30.19 in1022.4 mb 0.00 in0.0 mm 0.00 in0.0 mm 0.01 in0.3 mm
10:55 PM 50.2°F10.1°C 46.8°F8.2°C 88% 0.5 mph S0.8 kmh S 1.6 mph2.6 kmh 30.19 in1022.4 mb 0.00 in0.0 mm 0.00 in0.0 mm 0.01 in0.3 mm
11:00 PM 50.0°F10.0°C 46.6°F8.1°C 88% 0.5 mph S0.8 kmh S 1.6 mph2.6 kmh 30.19 in1022.4 mb 0.00 in0.0 mm 0.00 in0.0 mm 0.01 in0.3 mm
11:05 PM 50.0°F10.0°C 46.6°F8.1°C 88% Calm Calm 0.7 mph1.1 kmh 30.19 in1022.4 mb 0.00 in0.0 mm 0.00 in0.0 mm 0.01 in0.3 mm
11:10 PM 50.0°F10.0°C 46.6°F8.1°C 88% Calm Calm -- 30.19 in1022.4 mb 0.00 in0.0 mm 0.00 in0.0 mm 0.01 in0.3 mm
11:15 PM 50.0°F10.0°C 46.9°F8.3°C 89% Calm Calm -- 30.19 in1022.4 mb 0.00 in0.0 mm 0.00 in0.0 mm 0.01 in0.3 mm
11:20 PM 50.0°F10.0°C 46.9°F8.3°C 89% 0.2 mph SSW0.3 kmh SSW 0.7 mph1.1 kmh 30.19 in1022.4 mb 0.00 in0.0 mm 0.00 in0.0 mm 0.01 in0.3 mm
11:25 PM 50.0°F10.0°C 46.9°F8.3°C 89% 0.2 mph SSW0.3 kmh SSW 0.7 mph1.1 kmh 30.20 in1022.7 mb 0.00 in0.0 mm 0.00 in0.0 mm 0.01 in0.3 mm
11:30 PM 50.0°F10.0°C 46.9°F8.3°C 89% Calm Calm -- 30.20 in1022.7 mb 0.00 in0.0 mm 0.00 in0.0 mm 0.01 in0.3 mm
11:35 PM 50.2°F10.1°C 47.1°F8.4°C 89% 0.1 mph SW0.2 kmh SW 0.7 mph1.1 kmh 30.20 in1022.7 mb 0.00 in0.0 mm 0.00 in0.0 mm 0.01 in0.3 mm
11:40 PM 50.2°F10.1°C 47.1°F8.4°C 89% 0.6 mph S1.0 kmh S 1.6 mph2.6 kmh 30.20 in1022.7 mb 0.00 in0.0 mm 0.00 in0.0 mm 0.01 in0.3 mm
11:45 PM 50.2°F10.1°C 47.1°F8.4°C 89% 0.8 mph S1.3 kmh S 1.6 mph2.6 kmh 30.20 in1022.7 mb 0.00 in0.0 mm 0.00 in0.0 mm 0.01 in0.3 mm
11:50 PM 50.2°F10.1°C 47.1°F8.4°C 89% 0.3 mph S0.5 kmh S 1.6 mph2.6 kmh 30.20 in1022.7 mb 0.00 in0.0 mm 0.00 in0.0 mm 0.01 in0.3 mm
11:55 PM 50.0°F10.0°C 46.9°F8.3°C 89% 0.1 mph S0.2 kmh S 0.7 mph1.1 kmh 30.20 in1022.7 mb 0.00 in0.0 mm 0.00 in0.0 mm 0.01 in0.3 mm